Time;durP1;ratioP1;P1;durP2;ratioP2;P2;SDS_P1;SDS_P2;PMS_P1;PMS_P2;Temp;Humidity;BMP_temperature;BMP_pressure;BME280_temperature;BME280_humidity;BME280_pressure;Samples;Min_cycle;Max_cycle;Signal;HPM_P1;HPM_P2
2021/01/09 00:00:19;;;;;;;23.30;9.40;;;-3275.80;72.90;;;;;;5068309;28;20032;-45
2021/01/09 00:02:45;;;;;;;21.15;10.02;;;-3275.70;73.30;;;;;;5071877;28;20051;-44
2021/01/09 00:05:12;;;;;;;25.02;9.50;;;-3275.70;73.50;;;;;;5075619;28;20040;-43
2021/01/09 00:07:38;;;;;;;19.42;8.70;;;-3275.80;73.60;;;;;;5074947;28;20498;-46
2021/01/09 00:10:09;;;;;;;21.80;9.63;;;-3275.80;73.70;;;;;;5054248;28;20065;-43
2021/01/09 00:12:36;;;;;;;24.25;10.07;;;-3275.70;73.80;;;;;;5055041;28;20508;-45
2021/01/09 00:15:04;;;;;;;24.50;9.73;;;-3275.80;73.80;;;;;;5055443;28;20086;-45
2021/01/09 00:17:30;;;;;;;23.95;10.27;;;-3275.70;74.00;;;;;;5055437;28;20056;-45
2021/01/09 00:19:56;;;;;;;22.73;10.15;;;-3275.60;73.90;;;;;;5055409;28;20032;-43
2021/01/09 00:22:22;;;;;;;24.13;10.43;;;-3275.70;74.20;;;;;;5055090;28;20044;-44
2021/01/09 00:24:47;;;;;;;21.10;9.05;;;-3275.60;74.30;;;;;;5055056;28;20041;-44
2021/01/09 00:27:13;;;;;;;23.33;9.65;;;-3275.60;74.30;;;;;;5055463;28;20389;-43
2021/01/09 00:29:44;;;;;;;27.50;11.68;;;-3275.60;74.10;;;;;;5054932;28;20035;-44
2021/01/09 00:32:10;;;;;;;23.73;10.15;;;-3275.60;74.30;;;;;;5055072;28;20477;-44
2021/01/09 00:34:36;;;;;;;24.30;9.65;;;-3275.60;74.40;;;;;;5072216;28;20086;-45
2021/01/09 00:37:02;;;;;;;24.08;9.27;;;-3275.70;74.30;;;;;;5057721;28;20028;-44
2021/01/09 00:39:28;;;;;;;26.70;10.48;;;-3275.60;74.60;;;;;;5075011;28;20029;-43
2021/01/09 00:41:57;;;;;;;21.88;9.18;;;-3275.60;74.70;;;;;;5058016;28;20033;-45
2021/01/09 00:44:23;;;;;;;23.30;8.32;;;-3275.60;74.50;;;;;;5054523;28;20073;-45
2021/01/09 00:46:54;;;;;;;24.95;10.45;;;-3275.60;74.60;;;;;;5054365;28;20108;-45
2021/01/09 00:49:19;;;;;;;21.67;9.10;;;-3275.60;74.90;;;;;;5055441;28;20029;-44
2021/01/09 00:51:46;;;;;;;26.58;9.82;;;-3275.60;74.70;;;;;;5054363;28;20120;-45
2021/01/09 00:54:11;;;;;;;21.58;10.30;;;-3275.60;75.00;;;;;;5054705;28;20174;-44
2021/01/09 00:56:37;;;;;;;23.95;9.27;;;-3275.50;75.10;;;;;;5053054;28;20128;-45
2021/01/09 00:59:03;;;;;;;27.33;9.98;;;-3275.60;74.90;;;;;;5053120;28;20111;-46
2021/01/09 01:01:29;;;;;;;27.55;9.82;;;-3275.60;74.80;;;;;;5054570;28;20047;-47
2021/01/09 01:03:54;;;;;;;24.88;10.35;;;-3275.60;74.50;;;;;;5054147;28;20076;-43
2021/01/09 01:06:24;;;;;;;24.48;10.02;;;-3275.60;74.50;;;;;;5054927;28;20397;-45
2021/01/09 01:08:50;;;;;;;23.08;9.45;;;-3275.70;74.20;;;;;;5052812;28;20057;-45
2021/01/09 01:11:23;;;;;;;22.17;8.85;;;-3275.70;74.00;;;;;;5054200;28;20074;-43
2021/01/09 01:13:49;;;;;;;23.10;10.63;;;-3275.70;73.70;;;;;;5052740;28;20087;-43
2021/01/09 01:16:15;;;;;;;22.75;9.98;;;-3275.70;73.80;;;;;;5054496;28;20064;-43
2021/01/09 01:18:41;;;;;;;22.40;9.35;;;-3275.70;73.50;;;;;;5053716;28;20158;-45
2021/01/09 01:21:07;;;;;;;23.85;10.40;;;-3275.70;73.40;;;;;;5061113;28;20043;-44
2021/01/09 01:23:32;;;;;;;21.38;8.70;;;-3275.70;73.40;;;;;;5073025;28;20123;-43
2021/01/09 01:25:58;;;;;;;22.17;8.57;;;-3275.60;73.50;;;;;;5072443;28;20475;-43
2021/01/09 01:28:24;;;;;;;22.83;10.10;;;-3275.60;73.60;;;;;;5073851;28;20032;-43
2021/01/09 01:30:50;;;;;;;23.73;9.90;;;-3275.60;73.70;;;;;;5073594;28;20032;-44
2021/01/09 01:33:16;;;;;;;22.98;9.13;;;-3275.60;73.80;;;;;;5073619;28;20517;-43
2021/01/09 01:35:41;;;;;;;21.27;9.82;;;-3275.60;73.90;;;;;;5073696;28;20127;-45
2021/01/09 01:38:07;;;;;;;21.05;9.98;;;-3275.60;73.90;;;;;;5073860;28;20107;-44
2021/01/09 01:40:33;;;;;;;20.15;9.98;;;-3275.40;74.10;;;;;;5069078;28;20037;-44
2021/01/09 01:42:58;;;;;;;23.10;9.77;;;-3275.40;74.20;;;;;;5053515;28;20036;-43
2021/01/09 01:45:24;;;;;;;23.45;9.82;;;-3275.50;74.00;;;;;;5053770;28;20045;-45
2021/01/09 01:47:50;;;;;;;21.58;8.95;;;-3275.50;74.00;;;;;;5053906;28;20530;-46
2021/01/09 01:50:16;;;;;;;21.55;8.48;;;-3275.50;74.10;;;;;;5054102;28;20036;-44
2021/01/09 01:52:43;;;;;;;21.13;9.73;;;-3275.50;74.10;;;;;;5068512;28;20044;-48
2021/01/09 01:55:10;;;;;;;22.15;9.50;;;-3275.50;74.10;;;;;;5073416;28;20063;-45
2021/01/09 01:57:35;;;;;;;23.08;9.02;;;-3275.40;74.10;;;;;;5072397;28;20495;-46
2021/01/09 02:00:03;;;;;;;21.10;8.40;;;-3275.40;74.10;;;;;;5072983;28;20131;-44
2021/01/09 02:02:29;;;;;;;24.25;10.57;;;-3275.40;73.90;;;;;;5073276;28;20032;-45
2021/01/09 02:05:00;;;;;;;23.13;8.90;;;-3275.40;74.10;;;;;;5072933;28;20142;-43
2021/01/09 02:07:30;;;;;;;20.80;9.32;;;-3275.50;74.00;;;;;;5073844;28;20032;-47
2021/01/09 02:09:57;;;;;;;22.08;8.90;;;-3275.40;73.80;;;;;;5072879;28;20043;-44
2021/01/09 02:12:30;;;;;;;23.70;9.65;;;-3275.40;74.00;;;;;;5072915;28;20423;-43
2021/01/09 02:14:57;;;;;;;21.15;9.75;;;-3275.40;74.00;;;;;;5070885;28;20029;-45
2021/01/09 02:17:25;;;;;;;23.27;9.57;;;-3275.30;74.10;;;;;;5072649;28;20596;-45
2021/01/09 02:19:51;;;;;;;20.65;8.90;;;-3275.40;74.30;;;;;;5066259;28;20036;-45
2021/01/09 02:22:18;;;;;;;22.38;9.20;;;-3275.40;74.20;;;;;;5059362;28;20067;-47
2021/01/09 02:24:46;;;;;;;25.65;10.65;;;-3275.40;74.10;;;;;;5072442;28;20071;-49
2021/01/09 02:27:12;;;;;;;21.98;10.02;;;-3275.40;74.30;;;;;;5058308;28;20029;-42
2021/01/09 02:30:00;;;;;;;27.92;11.57;;;-3275.40;74.40;;;;;;5052936;28;20033;-43
2021/01/09 02:32:30;;;;;;;24.08;9.45;;;-3275.50;74.10;;;;;;5053684;28;20477;-44
2021/01/09 02:34:58;;;;;;;23.75;9.82;;;-3275.40;74.40;;;;;;5069852;28;20511;-44
2021/01/09 02:37:25;;;;;;;24.30;10.05;;;-3275.40;74.50;;;;;;5071210;28;20028;-44
2021/01/09 02:39:53;;;;;;;19.25;9.10;;;-3275.30;74.80;;;;;;5054560;28;20121;-43
2021/01/09 02:42:19;;;;;;;23.17;9.93;;;-3275.40;75.00;;;;;;5052365;28;20029;-45
2021/01/09 02:44:48;;;;;;;23.83;9.75;;;-3275.40;75.20;;;;;;5052243;28;20138;-43
2021/01/09 02:47:14;;;;;;;26.50;10.10;;;-3275.40;75.20;;;;;;5051324;28;20116;-45
2021/01/09 02:49:40;;;;;;;24.55;10.27;;;-3275.30;75.40;;;;;;5062229;28;20040;-45
2021/01/09 02:52:06;;;;;;;27.27;10.32;;;-3275.20;75.70;;;;;;5062168;28;20033;-45
2021/01/09 02:54:31;;;;;;;28.58;9.60;;;-3275.20;75.90;;;;;;5052525;28;20021;-44
2021/01/09 02:56:57;;;;;;;22.90;9.70;;;-3275.20;76.00;;;;;;5052352;28;20041;-44
2021/01/09 02:59:23;;;;;;;20.63;10.00;;;-3275.10;76.40;;;;;;5052385;28;20505;-46
2021/01/09 03:01:49;;;;;;;24.15;10.85;;;-3275.10;76.50;;;;;;5052129;28;20036;-46
2021/01/09 03:04:15;;;;;;;27.17;10.52;;;-3275.10;76.40;;;;;;5052241;28;20520;-43
2021/01/09 03:06:41;;;;;;;26.02;10.70;;;-3275.10;76.40;;;;;;5063726;28;20032;-45
2021/01/09 03:09:07;;;;;;;27.02;9.80;;;-3275.10;76.40;;;;;;5072374;28;20029;-43
2021/01/09 03:11:32;;;;;;;24.95;10.88;;;-3275.10;76.50;;;;;;5072478;28;20527;-44
2021/01/09 03:13:58;;;;;;;28.38;10.23;;;-3275.10;76.80;;;;;;5070782;28;20108;-43
2021/01/09 03:16:24;;;;;;;23.98;10.35;;;-3275.10;76.70;;;;;;5072010;28;20079;-44
2021/01/09 03:18:50;;;;;;;24.05;9.88;;;-3275.10;76.80;;;;;;5072000;28;20033;-44
2021/01/09 03:21:16;;;;;;;26.33;10.20;;;-3275.10;76.90;;;;;;5071710;28;20040;-46
2021/01/09 03:23:41;;;;;;;31.85;11.00;;;-3275.10;76.70;;;;;;5052508;28;20554;-46
2021/01/09 03:26:07;;;;;;;27.40;10.60;;;-3275.10;76.80;;;;;;5052119;28;20393;-47
2021/01/09 03:28:33;;;;;;;23.95;11.07;;;-3275.10;76.90;;;;;;5052130;28;20033;-45
2021/01/09 03:30:59;;;;;;;30.00;12.07;;;-3275.10;76.70;;;;;;5051876;28;20127;-44
2021/01/09 03:33:25;;;;;;;24.02;10.82;;;-3275.10;76.80;;;;;;5057025;28;20538;-47
2021/01/09 03:35:50;;;;;;;23.58;10.65;;;-3275.10;76.80;;;;;;5071851;28;20071;-44
2021/01/09 03:38:16;;;;;;;26.88;10.63;;;-3275.20;76.70;;;;;;5072291;28;20484;-50
2021/01/09 03:40:42;;;;;;;23.70;10.07;;;-3275.10;76.80;;;;;;5068327;28;20033;-49
2021/01/09 03:43:08;;;;;;;25.38;9.63;;;-3275.10;77.00;;;;;;5056125;28;20037;-46
2021/01/09 03:45:34;;;;;;;25.45;10.98;;;-3275.10;77.10;;;;;;5055929;28;20071;-43
2021/01/09 03:47:59;;;;;;;27.30;11.57;;;-3275.10;77.20;;;;;;5055619;28;20069;-46
2021/01/09 03:50:25;;;;;;;26.95;10.75;;;-3275.00;77.40;;;;;;5056088;28;20032;-43
2021/01/09 03:52:51;;;;;;;27.42;11.27;;;-3275.00;77.60;;;;;;5055287;28;20033;-42
2021/01/09 03:55:17;;;;;;;25.98;10.75;;;-3275.00;77.70;;;;;;5055850;28;20036;-44
2021/01/09 03:57:43;;;;;;;29.15;10.82;;;-3275.00;77.80;;;;;;5067272;28;20051;-47
2021/01/09 04:00:09;;;;;;;25.25;10.68;;;-3275.00;77.80;;;;;;5074380;28;20059;-44
2021/01/09 04:02:35;;;;;;;29.80;11.70;;;-3275.00;77.90;;;;;;5075711;28;20036;-45
2021/01/09 04:05:01;;;;;;;26.17;10.70;;;-3275.00;78.00;;;;;;5075184;28;20109;-44
2021/01/09 04:07:27;;;;;;;31.90;12.00;;;-3275.00;78.00;;;;;;5075401;28;20033;-43
2021/01/09 04:09:52;;;;;;;30.90;12.18;;;-3274.90;78.30;;;;;;5075400;28;20021;-43
2021/01/09 04:12:18;;;;;;;28.10;10.73;;;-3275.00;78.40;;;;;;5075498;28;20051;-42
2021/01/09 04:14:44;;;;;;;26.80;10.98;;;-3275.00;78.40;;;;;;5073209;28;20028;-45
2021/01/09 04:17:10;;;;;;;35.53;12.07;;;-3275.00;78.50;;;;;;5073875;28;20088;-44
2021/01/09 04:19:36;;;;;;;32.38;12.63;;;-3274.90;78.50;;;;;;5057461;28;20052;-43
2021/01/09 04:22:01;;;;;;;30.35;11.60;;;-3274.90;78.70;;;;;;5068512;28;20041;-44
2021/01/09 04:24:27;;;;;;;26.25;12.20;;;-3274.90;78.80;;;;;;5055282;28;20047;-43
2021/01/09 04:26:57;;;;;;;28.40;12.18;;;-3274.90;78.90;;;;;;5055095;28;20032;-43
2021/01/09 04:29:23;;;;;;;31.25;12.25;;;-3274.90;79.00;;;;;;5055011;28;20053;-44
2021/01/09 04:31:49;;;;;;;29.33;12.05;;;-3274.90;79.10;;;;;;5054092;28;20496;-43
2021/01/09 04:34:16;;;;;;;27.70;11.13;;;-3274.90;79.10;;;;;;5065670;28;20086;-43
2021/01/09 04:36:42;;;;;;;29.48;11.18;;;-3275.00;79.00;;;;;;5074862;28;20439;-43
2021/01/09 04:39:08;;;;;;;27.85;12.07;;;-3275.00;79.10;;;;;;5074892;28;20035;-43
2021/01/09 04:41:36;;;;;;;32.17;11.90;;;-3275.00;78.90;;;;;;5060869;28;20074;-43
2021/01/09 04:44:03;;;;;;;28.00;11.27;;;-3274.90;79.10;;;;;;5054335;28;20431;-47
2021/01/09 04:46:31;;;;;;;29.98;11.55;;;-3274.90;79.40;;;;;;5054862;28;20064;-44
2021/01/09 04:48:57;;;;;;;27.65;11.38;;;-3274.90;79.40;;;;;;5054383;28;20102;-42
2021/01/09 04:51:26;;;;;;;28.98;11.70;;;-3274.90;79.50;;;;;;5054242;28;20089;-44
2021/01/09 04:53:54;;;;;;;29.90;11.70;;;-3274.90;79.70;;;;;;5073748;28;20393;-45
2021/01/09 04:56:20;;;;;;;28.08;11.80;;;-3275.00;79.50;;;;;;5067997;28;20104;-43
2021/01/09 04:58:46;;;;;;;30.50;12.85;;;-3275.00;79.40;;;;;;5054169;28;20029;-47
2021/01/09 05:01:13;;;;;;;30.85;13.15;;;-3275.00;79.30;;;;;;5054427;28;20037;-44
2021/01/09 05:03:38;;;;;;;31.35;12.60;;;-3275.10;79.10;;;;;;5054232;28;20068;-44
2021/01/09 05:06:05;;;;;;;25.95;11.80;;;-3275.10;79.10;;;;;;5054553;28;20122;-43
2021/01/09 05:08:30;;;;;;;31.40;12.60;;;-3275.10;79.10;;;;;;5054346;28;20499;-44
2021/01/09 05:10:57;;;;;;;30.88;11.90;;;-3275.10;78.90;;;;;;5054003;28;20068;-44
2021/01/09 05:13:23;;;;;;;31.70;13.30;;;-3275.10;78.80;;;;;;5054206;28;20032;-43
2021/01/09 05:15:49;;;;;;;30.35;12.85;;;-3275.10;78.70;;;;;;5053879;28;20049;-44
2021/01/09 05:18:19;;;;;;;29.23;13.00;;;-3275.10;78.80;;;;;;5054036;28;20083;-45
2021/01/09 05:20:44;;;;;;;31.30;12.43;;;-3275.10;79.00;;;;;;5072635;28;20033;-47
2021/01/09 05:23:11;;;;;;;31.88;13.15;;;-3275.10;78.80;;;;;;5057774;28;20167;-43
2021/01/09 05:25:37;;;;;;;30.48;11.93;;;-3275.10;78.50;;;;;;5054158;28;20052;-46
2021/01/09 05:28:06;;;;;;;29.27;11.60;;;-3275.10;78.50;;;;;;5053862;28;20037;-45
2021/01/09 05:30:32;;;;;;;31.27;12.90;;;-3275.00;78.10;;;;;;5052798;28;20481;-45
2021/01/09 05:33:01;;;;;;;28.17;12.73;;;-3275.00;78.40;;;;;;5055063;28;20036;-44
2021/01/09 05:35:29;;;;;;;29.67;12.95;;;-3275.00;78.40;;;;;;5074064;28;20120;-43
2021/01/09 05:37:55;;;;;;;28.45;12.07;;;-3275.00;78.10;;;;;;5073629;28;20043;-44
2021/01/09 05:40:21;;;;;;;26.52;11.85;;;-3275.00;77.90;;;;;;5069208;28;20021;-45
2021/01/09 05:42:50;;;;;;;32.75;13.02;;;-3274.90;77.80;;;;;;5053848;28;20535;-46
2021/01/09 05:45:18;;;;;;;28.38;12.20;;;-3274.90;78.10;;;;;;5053670;28;20052;-42
2021/01/09 05:47:45;;;;;;;30.98;13.00;;;-3275.00;77.90;;;;;;5053523;28;20055;-45
2021/01/09 05:50:12;;;;;;;29.80;12.15;;;-3275.00;77.60;;;;;;5053549;28;20071;-44
2021/01/09 05:52:39;;;;;;;30.33;12.88;;;-3275.10;77.60;;;;;;5061086;28;20031;-42
2021/01/09 05:55:06;;;;;;;35.22;13.35;;;-3275.10;77.60;;;;;;5073335;28;20032;-44
2021/01/09 05:57:34;;;;;;;30.73;12.10;;;-3275.10;77.50;;;;;;5072664;28;20095;-48
2021/01/09 06:00:05;;;;;;;29.95;12.85;;;-3275.10;77.30;;;;;;5072660;28;20035;-44
2021/01/09 06:03:20;;;;;;;30.05;12.05;;;-3275.10;77.30;;;;;;5073146;28;20040;-44
2021/01/09 06:05:47;;;;;;;27.58;11.38;;;-3275.10;77.20;;;;;;5059405;28;20600;-44
2021/01/09 06:08:18;;;;;;;34.25;12.85;;;-3275.00;77.40;;;;;;5073027;28;20162;-45
2021/01/09 06:10:47;;;;;;;32.55;12.75;;;-3275.00;77.30;;;;;;5073034;28;20032;-43
2021/01/09 06:13:13;;;;;;;30.35;12.90;;;-3275.00;77.20;;;;;;5072169;28;20118;-43
2021/01/09 06:15:42;;;;;;;27.83;13.02;;;-3274.90;77.20;;;;;;5071911;28;20041;-44
2021/01/09 06:18:09;;;;;;;31.10;12.45;;;-3274.90;77.40;;;;;;5072539;28;20024;-42
2021/01/09 06:20:35;;;;;;;31.50;11.45;;;-3275.00;77.20;;;;;;5072130;28;20040;-44
2021/01/09 06:23:02;;;;;;;29.63;11.80;;;-3274.90;77.40;;;;;;5052927;28;20116;-43
2021/01/09 06:25:30;;;;;;;29.67;11.50;;;-3274.80;77.30;;;;;;5052885;28;20040;-43
2021/01/09 06:28:02;;;;;;;31.92;13.20;;;-3274.80;77.40;;;;;;5052498;28;20119;-44
2021/01/09 06:30:32;;;;;;;30.60;11.60;;;-3274.80;77.50;;;;;;5053594;28;20035;-42
2021/01/09 06:33:03;;;;;;;28.35;11.30;;;-3274.90;77.40;;;;;;5053734;28;20033;-44
2021/01/09 06:35:36;;;;;;;26.35;10.63;;;-3274.90;77.20;;;;;;5072661;28;20036;-46
2021/01/09 06:38:01;;;;;;;26.42;11.07;;;-3274.90;77.00;;;;;;5072412;28;20389;-44
2021/01/09 06:40:27;;;;;;;33.90;12.02;;;-3274.90;76.90;;;;;;5068112;28;20029;-44
2021/01/09 06:42:55;;;;;;;33.17;12.40;;;-3274.90;76.90;;;;;;5052693;28;20466;-44
2021/01/09 06:45:22;;;;;;;34.67;11.68;;;-3274.90;76.70;;;;;;5052679;28;20041;-44
2021/01/09 06:47:59;;;;;;;25.65;11.27;;;-3274.90;76.70;;;;;;5052972;28;20036;-43
2021/01/09 06:50:24;;;;;;;27.55;11.60;;;-3274.90;76.70;;;;;;5052566;28;20547;-44
2021/01/09 06:52:53;;;;;;;29.45;12.35;;;-3274.90;76.90;;;;;;5052553;28;20060;-45
2021/01/09 06:55:37;;;;;;;33.45;12.88;;;-3274.80;76.80;;;;;;5052395;28;20055;-44
2021/01/09 06:58:04;;;;;;;31.00;11.98;;;-3274.80;76.90;;;;;;5052156;28;20432;-43
2021/01/09 07:00:30;;;;;;;32.75;11.60;;;-3274.90;76.60;;;;;;5052428;28;20033;-42
2021/01/09 07:03:16;;;;;;;28.90;12.00;;;-3274.80;76.60;;;;;;5052115;28;20033;-42
2021/01/09 07:05:49;;;;;;;31.58;11.70;;;-3274.80;76.70;;;;;;5053018;28;20072;-44
2021/01/09 07:08:23;;;;;;;28.95;11.13;;;-3274.80;76.70;;;;;;5051164;28;20095;-45
2021/01/09 07:11:04;;;;;;;26.38;10.13;;;-3274.80;76.70;;;;;;5052409;28;20111;-44
2021/01/09 07:13:32;;;;;;;28.48;10.88;;;-3274.70;76.90;;;;;;5052625;28;20025;-43
2021/01/09 07:16:09;;;;;;;28.95;12.80;;;-3274.70;76.80;;;;;;5052033;28;20480;-43
2021/01/09 07:18:47;;;;;;;27.70;10.93;;;-3274.70;76.70;;;;;;5052741;28;20033;-44
2021/01/09 07:21:17;;;;;;;28.58;10.70;;;-3274.70;76.80;;;;;;5053318;28;20383;-43
2021/01/09 07:23:52;;;;;;;30.85;11.90;;;-3274.70;76.60;;;;;;5052034;28;20037;-45
2021/01/09 07:26:20;;;;;;;25.95;10.43;;;-3274.70;76.70;;;;;;5052689;28;20056;-43
2021/01/09 07:28:48;;;;;;;25.00;11.38;;;-3274.70;76.80;;;;;;5067562;28;20021;-45
2021/01/09 07:31:13;;;;;;;26.63;10.52;;;-3274.70;76.70;;;;;;5051849;28;20064;-43
2021/01/09 07:33:44;;;;;;;29.30;12.73;;;-3274.60;76.80;;;;;;5059035;28;20523;-43
2021/01/09 07:36:16;;;;;;;28.85;11.25;;;-3274.60;76.80;;;;;;5071725;28;20120;-42
2021/01/09 07:38:48;;;;;;;28.13;11.40;;;-3274.70;76.60;;;;;;5058545;28;20021;-47
2021/01/09 07:41:37;;;;;;;29.73;11.57;;;-3274.70;76.50;;;;;;5062786;28;20078;-46
2021/01/09 07:44:12;;;;;;;23.98;11.32;;;-3274.70;76.60;;;;;;5071746;28;20048;-44
2021/01/09 07:46:53;;;;;;;26.23;11.07;;;-3274.90;76.40;;;;;;5071715;28;20416;-47
2021/01/09 07:49:30;;;;;;;27.30;11.23;;;-3274.90;76.10;;;;;;5071654;28;20451;-45
2021/01/09 07:51:59;;;;;;;29.95;11.38;;;-3274.90;76.00;;;;;;5070295;28;20035;-47
2021/01/09 07:54:35;;;;;;;28.45;11.75;;;-3274.90;75.90;;;;;;5052463;28;20029;-47
2021/01/09 07:57:04;;;;;;;30.15;11.75;;;-3274.90;75.80;;;;;;5051710;28;20025;-43
2021/01/09 07:59:30;;;;;;;31.80;12.52;;;-3275.00;75.50;;;;;;5051942;28;20040;-45
2021/01/09 08:01:56;;;;;;;28.00;12.73;;;-3275.00;75.30;;;;;;5051771;28;20519;-46
2021/01/09 08:04:22;;;;;;;29.52;12.40;;;-3275.10;75.10;;;;;;5051940;28;20048;-45
2021/01/09 08:06:48;;;;;;;28.50;11.93;;;-3275.10;75.40;;;;;;5050664;28;20494;-45
2021/01/09 08:09:14;;;;;;;34.80;12.85;;;-3275.10;75.40;;;;;;5051533;28;20033;-45
2021/01/09 08:11:44;;;;;;;30.95;12.63;;;-3275.20;75.20;;;;;;5052420;28;20405;-48
2021/01/09 08:14:14;;;;;;;30.70;13.07;;;-3275.20;75.10;;;;;;5051371;28;20033;-44
2021/01/09 08:16:41;;;;;;;26.63;10.95;;;-3275.10;75.10;;;;;;5051893;28;20052;-46
2021/01/09 08:19:12;;;;;;;27.02;10.68;;;-3275.30;74.80;;;;;;5051598;28;20076;-46
2021/01/09 08:21:39;;;;;;;22.55;9.60;;;-3275.40;74.50;;;;;;5061091;28;20033;-44
2021/01/09 08:24:05;;;;;;;26.10;10.82;;;-3275.30;74.30;;;;;;5072690;28;20039;-46
2021/01/09 08:26:32;;;;;;;27.63;10.93;;;-3275.40;74.10;;;;;;5075047;28;20035;-46
2021/01/09 08:28:58;;;;;;;31.88;12.10;;;-3275.30;74.00;;;;;;5068128;28;20029;-48
2021/01/09 08:31:27;;;;;;;29.02;11.82;;;-3275.30;73.80;;;;;;5055243;28;20029;-48
2021/01/09 08:33:53;;;;;;;28.95;12.43;;;-3275.30;74.00;;;;;;5064012;28;20028;-47
2021/01/09 08:36:22;;;;;;;24.85;10.13;;;-3275.50;73.50;;;;;;5074743;28;20431;-47
2021/01/09 08:38:50;;;;;;;27.42;10.27;;;-3275.50;73.00;;;;;;5074951;28;20127;-44
2021/01/09 08:41:16;;;;;;;26.38;10.90;;;-3275.40;73.00;;;;;;5063224;28;20029;-44
2021/01/09 08:43:41;;;;;;;27.00;11.13;;;-3275.60;72.80;;;;;;5054771;28;20385;-46
2021/01/09 08:46:13;;;;;;;23.58;9.77;;;-3275.60;72.70;;;;;;5055255;28;20408;-45
2021/01/09 08:48:38;;;;;;;27.27;11.15;;;-3275.60;72.50;;;;;;5053575;28;20025;-47
2021/01/09 08:51:12;;;;;;;26.20;10.00;;;-3275.60;72.60;;;;;;5053342;28;20050;-44
2021/01/09 08:54:07;;;;;;;25.70;9.82;;;-3275.60;72.50;;;;;;5070006;28;20024;-46
2021/01/09 08:56:34;;;;;;;23.70;10.52;;;-3275.60;72.40;;;;;;5075040;28;20098;-46
2021/01/09 08:59:02;;;;;;;22.95;9.73;;;-3275.70;72.30;;;;;;5074611;28;20039;-50
2021/01/09 09:01:38;;;;;;;24.65;10.60;;;-3275.70;72.30;;;;;;5074661;28;20028;-45
2021/01/09 09:04:07;;;;;;;26.63;10.18;;;-3275.80;72.40;;;;;;5059411;28;20492;-46
2021/01/09 09:06:37;;;;;;;24.58;10.65;;;-3275.70;72.20;;;;;;5054309;28;20032;-47
2021/01/09 09:09:04;;;;;;;25.85;10.20;;;-3275.80;72.30;;;;;;5053123;28;20124;-48
2021/01/09 09:11:30;;;;;;;21.42;9.20;;;-3275.90;72.00;;;;;;5054350;28;20051;-46
2021/01/09 09:14:06;;;;;;;26.52;11.35;;;-3276.00;71.90;;;;;;5053227;28;20037;-46
2021/01/09 09:16:34;;;;;;;24.40;10.05;;;-3276.00;71.90;;;;;;5053978;28;20075;-45
2021/01/09 09:19:11;;;;;;;24.38;10.43;;;-3276.10;71.60;;;;;;5053776;28;20048;-48
2021/01/09 09:21:55;;;;;;;27.63;11.40;;;-3276.10;71.80;;;;;;5054219;28;20068;-48
2021/01/09 09:24:37;;;;;;;28.08;10.80;;;-3276.20;71.40;;;;;;5053643;28;20072;-45
2021/01/09 09:27:24;;;;;;;24.73;10.32;;;-3276.20;71.10;;;;;;5053658;28;20048;-45
2021/01/09 09:30:10;;;;;;;23.63;9.55;;;-3276.20;70.70;;;;;;5054137;28;20029;-45
2021/01/09 09:32:40;;;;;;;24.73;11.38;;;-3276.30;71.30;;;;;;5054244;28;20095;-45
2021/01/09 09:35:22;;;;;;;21.33;9.15;;;-3276.30;71.10;;;;;;5072644;28;20064;-46
2021/01/09 09:37:49;;;;;;;25.83;10.18;;;-3276.40;71.00;;;;;;5073069;28;20028;-45
2021/01/09 09:40:25;;;;;;;29.25;11.57;;;-3276.50;71.00;;;;;;5070883;28;20078;-48
2021/01/09 09:42:52;;;;;;;24.38;10.23;;;-3276.60;71.00;;;;;;5053875;28;20032;-44
2021/01/09 09:45:18;;;;;;;29.02;10.32;;;-3276.50;70.50;;;;;;5053483;28;20087;-48
2021/01/09 09:47:50;;;;;;;22.65;9.55;;;-3276.60;70.50;;;;;;5053645;28;20090;-46
2021/01/09 09:50:20;;;;;;;26.00;10.52;;;-3276.60;70.70;;;;;;5057726;28;20029;-46
2021/01/09 09:53:05;;;;;;;22.08;9.88;;;-3276.50;70.10;;;;;;5070206;28;20514;-47
2021/01/09 09:55:31;;;;;;;29.05;10.60;;;-3276.50;70.30;;;;;;5056054;28;20033;-46
2021/01/09 09:58:10;;;;;;;21.52;9.88;;;-3276.40;70.70;;;;;;5052050;28;20064;-47
2021/01/09 10:00:46;;;;;;;25.00;10.10;;;-3276.60;70.30;;;;;;5053237;28;20219;-47
2021/01/09 10:03:12;;;;;;;22.48;9.00;;;-3276.60;70.50;;;;;;5053269;28;20029;-45
2021/01/09 10:05:38;;;;;;;25.63;9.85;;;-3276.70;70.40;;;;;;5053282;28;20471;-45
2021/01/09 10:08:10;;;;;;;22.70;10.15;;;-3276.70;70.20;;;;;;5053555;28;20037;-47
2021/01/09 10:10:36;;;;;;;21.80;9.18;;;-3276.70;69.90;;;;;;5072385;28;20036;-45
2021/01/09 10:13:01;;;;;;;26.33;10.88;;;-3276.60;69.90;;;;;;5073283;28;20040;-47
2021/01/09 10:15:27;;;;;;;22.48;9.18;;;-3276.60;70.00;;;;;;5072655;28;20036;-49
2021/01/09 10:17:54;;;;;;;24.05;9.05;;;-3276.60;69.90;;;;;;5073269;28;20064;-47
2021/01/09 10:20:20;;;;;;;22.40;9.15;;;-3276.60;70.30;;;;;;5072382;28;20493;-45
2021/01/09 10:22:46;;;;;;;26.92;10.32;;;-3276.60;70.30;;;;;;5069184;28;20075;-46
2021/01/09 10:25:12;;;;;;;27.00;9.27;;;-3276.70;70.10;;;;;;5052853;28;20497;-47
2021/01/09 10:27:38;;;;;;;25.45;10.45;;;-3276.60;69.80;;;;;;5052219;28;20469;-44
2021/01/09 10:30:05;;;;;;;22.15;8.80;;;-3276.60;70.10;;;;;;5052715;28;20389;-45
2021/01/09 10:32:31;;;;;;;21.35;10.30;;;-3276.60;69.60;;;;;;5051633;28;20040;-46
2021/01/09 10:34:57;;;;;;;23.98;10.10;;;-3276.70;69.60;;;;;;5070665;28;20029;-47
2021/01/09 10:37:23;;;;;;;24.52;10.02;;;-3276.70;69.60;;;;;;5073042;28;20393;-45
2021/01/09 10:39:48;;;;;;;25.70;10.40;;;-3276.70;69.50;;;;;;5073058;28;20024;-44
2021/01/09 10:42:14;;;;;;;25.80;10.40;;;-3276.70;69.70;;;;;;5053076;28;20037;-46
2021/01/09 10:44:40;;;;;;;24.55;9.63;;;-3276.70;69.80;;;;;;5052957;28;20048;-45
2021/01/09 10:47:06;;;;;;;23.92;10.30;;;0.00;69.70;;;;;;5052264;28;20037;-47
2021/01/09 10:49:32;;;;;;;21.92;9.20;;;0.00;68.90;;;;;;5051316;28;20025;-47
2021/01/09 10:51:58;;;;;;;22.85;9.88;;;0.10;69.00;;;;;;5058943;28;20086;-45
2021/01/09 10:54:24;;;;;;;23.65;8.93;;;0.10;68.50;;;;;;5072145;28;20441;-47
2021/01/09 10:56:50;;;;;;;21.23;8.27;;;0.20;68.20;;;;;;5072377;28;20036;-48
2021/01/09 10:59:15;;;;;;;21.40;8.95;;;0.20;67.20;;;;;;5072028;28;20503;-45
2021/01/09 11:01:41;;;;;;;24.83;9.18;;;0.10;67.70;;;;;;5071421;28;20507;-47
2021/01/09 11:04:07;;;;;;;20.88;8.88;;;0.20;67.40;;;;;;5072295;28;20032;-47
2021/01/09 11:06:33;;;;;;;22.35;8.93;;;0.20;67.10;;;;;;5072499;28;20067;-47
2021/01/09 11:08:58;;;;;;;18.35;6.70;;;0.20;67.00;;;;;;5072541;28;20028;-46
2021/01/09 11:11:24;;;;;;;20.55;8.32;;;0.20;66.30;;;;;;5072014;28;20033;-46
2021/01/09 11:13:50;;;;;;;21.60;9.00;;;0.20;66.70;;;;;;5072060;28;20392;-45
2021/01/09 11:16:23;;;;;;;21.80;8.88;;;0.20;66.70;;;;;;5071992;28;20058;-45
2021/01/09 11:18:50;;;;;;;19.80;8.73;;;0.20;66.70;;;;;;5070129;28;20384;-45
2021/01/09 11:21:18;;;;;;;23.92;8.57;;;0.10;66.80;;;;;;5070399;28;20559;-47
2021/01/09 11:23:44;;;;;;;20.75;8.45;;;0.10;66.60;;;;;;5061347;28;20040;-46
2021/01/09 11:26:21;;;;;;;19.35;8.18;;;0.20;66.60;;;;;;5052102;28;20055;-43
2021/01/09 11:28:47;;;;;;;22.55;8.75;;;0.20;66.10;;;;;;5051394;28;20438;-44
2021/01/09 11:31:13;;;;;;;24.13;9.25;;;0.20;66.40;;;;;;5051843;28;20060;-46
2021/01/09 11:33:42;;;;;;;21.70;8.27;;;0.20;66.40;;;;;;5059112;28;20077;-44
2021/01/09 11:36:12;;;;;;;19.73;9.35;;;0.20;65.70;;;;;;5071385;28;20065;-46
2021/01/09 11:38:38;;;;;;;20.02;9.15;;;0.20;66.20;;;;;;5072115;28;20396;-46
2021/01/09 11:41:04;;;;;;;18.30;7.50;;;0.20;66.20;;;;;;5062108;28;20025;-44
2021/01/09 11:43:30;;;;;;;19.40;8.45;;;0.10;66.20;;;;;;5052106;28;20036;-45
2021/01/09 11:45:56;;;;;;;17.67;8.77;;;0.10;66.50;;;;;;5050748;28;20029;-48
2021/01/09 11:48:23;;;;;;;20.08;7.82;;;0.20;66.50;;;;;;5050742;28;20032;-45
2021/01/09 11:50:49;;;;;;;18.02;8.13;;;0.30;66.50;;;;;;5051885;28;20477;-45
2021/01/09 11:53:14;;;;;;;20.88;9.13;;;0.40;65.90;;;;;;5052093;28;20040;-48
2021/01/09 11:55:40;;;;;;;20.65;8.57;;;0.40;65.90;;;;;;5051755;28;20043;-46
2021/01/09 11:58:06;;;;;;;24.92;9.48;;;0.40;66.40;;;;;;5052226;28;20044;-46
2021/01/09 12:00:32;;;;;;;20.52;8.63;;;0.50;66.20;;;;;;5055377;28;20037;-44
2021/01/09 12:02:57;;;;;;;20.88;9.30;;;0.60;66.20;;;;;;5055544;28;20036;-46
2021/01/09 12:05:23;;;;;;;19.80;8.55;;;0.60;66.60;;;;;;5055239;28;20040;-45
2021/01/09 12:07:49;;;;;;;26.38;9.43;;;0.50;66.60;;;;;;5055400;28;20033;-46
2021/01/09 12:10:15;;;;;;;23.83;8.93;;;0.60;66.70;;;;;;5055555;28;20438;-44